createdAt,value
2023-01-28T00:01:59.105Z,4.30
2023-01-28T00:04:28.253Z,4.00
2023-01-28T00:06:56.231Z,4.00
2023-01-28T00:09:27.889Z,4.20
2023-01-28T00:11:56.500Z,4.50
2023-01-28T00:14:26.444Z,4.00
2023-01-28T00:16:55.390Z,4.30
2023-01-28T00:19:23.256Z,4.00
2023-01-28T00:21:50.052Z,4.00
2023-01-28T00:24:16.905Z,3.90
2023-01-28T00:26:44.532Z,3.90
2023-01-28T00:29:11.648Z,4.10
2023-01-28T00:31:39.507Z,3.90
2023-01-28T00:34:06.332Z,3.90
2023-01-28T00:36:33.922Z,3.90
2023-01-28T00:39:01.346Z,3.90
2023-01-28T00:41:29.759Z,3.80
2023-01-28T00:43:59.129Z,4.30
2023-01-28T00:46:27.400Z,3.90
2023-01-28T00:48:54.436Z,3.80
2023-01-28T00:51:21.876Z,3.90
2023-01-28T00:53:49.826Z,3.90
2023-01-28T00:56:19.580Z,3.90
2023-01-28T00:58:47.475Z,3.90
2023-01-28T01:01:25.465Z,3.90
2023-01-28T01:04:05.781Z,3.90
2023-01-28T01:06:35.787Z,4.20
2023-01-28T01:09:06.178Z,3.90
2023-01-28T01:11:35.121Z,3.90
2023-01-28T01:14:04.832Z,4.00
2023-01-28T01:16:33.439Z,3.90
2023-01-28T01:19:00.573Z,4.30
2023-01-28T01:21:29.374Z,4.00
2023-01-28T01:23:56.556Z,4.00
2023-01-28T01:26:23.864Z,4.00
2023-01-28T01:28:52.142Z,3.90
2023-01-28T01:31:22.027Z,3.90
2023-01-28T01:33:50.605Z,4.00
2023-01-28T01:36:19.628Z,4.40
2023-01-28T01:38:46.747Z,4.00
2023-01-28T01:41:26.776Z,4.10
2023-01-28T01:44:05.097Z,4.00
2023-01-28T01:46:48.458Z,4.00
2023-01-28T01:49:26.563Z,4.00
2023-01-28T01:52:13.055Z,4.00
2023-01-28T01:54:42.397Z,4.10
2023-01-28T01:57:12.701Z,3.90
2023-01-28T01:59:42.430Z,3.90
2023-01-28T02:02:10.261Z,3.90
2023-01-28T02:04:41.153Z,3.90
2023-01-28T02:07:18.653Z,3.90
2023-01-28T02:09:45.521Z,3.80
2023-01-28T02:12:20.721Z,3.90
2023-01-28T02:15:01.525Z,3.90
2023-01-28T02:20:55.777Z,3.80
2023-01-28T02:23:54.992Z,3.80
2023-01-28T02:26:40.519Z,3.80
2023-01-28T02:29:26.270Z,3.80
2023-01-28T03:13:44.216Z,3.60
2023-01-28T03:16:32.323Z,3.60
2023-01-28T07:30:16.402Z,3.70
2023-01-28T07:32:44.254Z,4.00
2023-01-28T07:55:59.857Z,3.90
2023-01-28T08:34:41.983Z,4.00
2023-01-28T08:37:08.904Z,4.10
2023-01-28T08:39:35.786Z,4.20
2023-01-28T08:42:02.836Z,4.40
2023-01-28T08:44:29.665Z,4.30
2023-01-28T08:46:56.643Z,4.50
2023-01-28T08:49:23.613Z,4.40
2023-01-28T08:51:50.916Z,4.30
2023-01-28T08:54:18.056Z,4.40
2023-01-28T08:56:45.082Z,4.50
2023-01-28T08:59:12.237Z,4.40
2023-01-28T09:01:39.540Z,4.80
2023-01-28T09:04:06.565Z,4.50
2023-01-28T09:06:33.687Z,4.50
2023-01-28T09:09:00.949Z,4.50
2023-01-28T09:11:29.620Z,4.50
2023-01-28T09:13:59.245Z,4.50
2023-01-28T09:16:26.863Z,4.70
2023-01-28T09:18:54.163Z,4.50
2023-01-28T09:21:21.839Z,4.50
2023-01-28T09:23:50.869Z,4.50
2023-01-28T09:26:18.018Z,4.50
2023-01-28T09:28:45.629Z,4.50
2023-01-28T09:31:13.412Z,4.50
2023-01-28T09:33:42.798Z,4.60
2023-01-28T09:36:11.532Z,4.90
2023-01-28T09:38:38.381Z,4.70
2023-01-28T09:41:36.121Z,4.80
2023-01-28T09:44:35.207Z,4.80
2023-01-28T09:47:03.970Z,4.80
2023-01-28T09:49:37.029Z,5.00
2023-01-28T09:52:04.371Z,4.80
2023-01-28T09:54:46.980Z,4.90
2023-01-28T09:57:21.234Z,5.20
2023-01-28T09:59:49.629Z,5.00
2023-01-28T10:02:26.120Z,5.20
2023-01-28T10:04:56.005Z,5.20
2023-01-28T10:07:33.285Z,5.00
2023-01-28T10:10:09.325Z,5.10
2023-01-28T10:13:24.689Z,4.90
2023-01-28T10:16:03.827Z,5.00
2023-01-28T10:18:53.944Z,5.00
2023-01-28T10:21:29.860Z,5.20
2023-01-28T10:24:10.393Z,4.90
2023-01-28T10:26:40.472Z,4.90
2023-01-28T10:29:19.203Z,4.90
2023-01-28T10:31:53.562Z,4.80
2023-01-28T10:34:22.168Z,4.90
2023-01-28T10:36:50.370Z,5.00
2023-01-28T10:39:23.371Z,4.90
2023-01-28T10:41:57.841Z,5.00
2023-01-28T10:44:45.715Z,5.00
2023-01-28T10:47:29.856Z,5.30
2023-01-28T10:50:01.304Z,5.00
2023-01-28T10:52:28.228Z,4.90
2023-01-28T10:55:03.173Z,4.90
2023-01-28T10:57:32.877Z,4.90
2023-01-28T11:00:25.073Z,4.80
2023-01-28T11:02:52.207Z,4.90
2023-01-28T11:05:26.544Z,5.00
2023-01-28T11:08:07.146Z,4.90
2023-01-28T11:10:38.397Z,4.80
2023-01-28T11:13:07.190Z,4.80
2023-01-28T11:15:34.225Z,4.80
2023-01-28T11:18:08.135Z,4.80
2023-01-28T11:20:38.971Z,4.80
2023-01-28T11:23:05.933Z,4.80
2023-01-28T11:25:35.417Z,4.70
2023-01-28T11:28:06.147Z,4.70
2023-01-28T11:30:36.239Z,4.70
2023-01-28T11:33:14.423Z,5.20
2023-01-28T11:35:41.552Z,4.70
2023-01-28T11:38:20.776Z,4.80
2023-01-28T11:40:56.124Z,4.70
2023-01-28T11:43:29.568Z,4.70
2023-01-28T11:46:15.341Z,4.70
2023-01-28T11:48:45.241Z,4.70
2023-01-28T11:51:33.095Z,4.70
2023-01-28T11:54:18.923Z,5.10
2023-01-28T11:56:55.305Z,4.70
2023-01-28T11:59:22.392Z,4.70
2023-01-28T12:02:09.119Z,4.70
2023-01-28T12:04:51.855Z,5.10
2023-01-28T12:07:34.460Z,4.80
2023-01-28T12:10:17.201Z,4.90
2023-01-28T12:12:59.480Z,4.70
2023-01-28T12:15:43.095Z,4.70
2023-01-28T12:18:49.496Z,4.70
2023-01-28T12:21:24.980Z,4.70
2023-01-28T12:24:18.116Z,4.80
2023-01-28T12:26:57.459Z,4.70
2023-01-28T12:29:34.044Z,4.70
2023-01-28T12:32:31.643Z,4.80
2023-01-28T12:35:17.477Z,4.80
2023-01-28T12:37:53.075Z,4.80
2023-01-28T12:40:54.201Z,4.80
2023-01-28T12:43:24.381Z,4.80
2023-01-28T12:45:57.720Z,4.80
2023-01-28T12:48:38.433Z,4.70
2023-01-28T12:51:14.485Z,4.70
2023-01-28T12:53:49.872Z,4.70
2023-01-28T12:56:20.211Z,4.90
2023-01-28T12:58:56.772Z,4.80
2023-01-28T13:01:30.809Z,4.80
2023-01-28T13:04:24.763Z,4.90
2023-01-28T13:06:58.911Z,4.90
2023-01-28T13:09:28.754Z,4.90
2023-01-28T13:11:58.998Z,4.90
2023-01-28T13:14:31.560Z,5.20
2023-01-28T13:17:32.158Z,4.80
2023-01-28T13:19:59.872Z,4.90
2023-01-28T13:22:36.158Z,5.30
2023-01-28T13:25:14.515Z,5.40
2023-01-28T13:27:41.774Z,5.00
2023-01-28T13:30:31.427Z,5.00
2023-01-28T13:33:05.621Z,5.00
2023-01-28T13:35:40.942Z,5.00
2023-01-28T13:38:18.012Z,5.00
2023-01-28T13:40:58.019Z,5.30
2023-01-28T13:43:34.912Z,5.10
2023-01-28T13:46:05.845Z,5.20
2023-01-28T13:48:35.209Z,5.20
2023-01-28T13:51:04.386Z,5.20
2023-01-28T13:53:39.874Z,5.20
2023-01-28T13:56:18.877Z,5.70
2023-01-28T13:59:09.138Z,5.70
2023-01-28T14:01:56.233Z,5.30
2023-01-28T14:04:35.523Z,5.30
2023-01-28T14:07:13.838Z,5.30
2023-01-28T14:09:44.074Z,5.30
2023-01-28T14:12:11.051Z,5.30
2023-01-28T14:15:17.415Z,5.30
2023-01-28T14:17:54.108Z,5.30
2023-01-28T14:20:37.648Z,5.30
2023-01-28T14:23:06.480Z,5.40
2023-01-28T14:25:49.456Z,5.60
2023-01-28T14:28:30.422Z,5.40
2023-01-28T14:31:05.808Z,5.40
2023-01-28T14:33:34.173Z,5.40
2023-01-28T14:36:30.945Z,5.50
2023-01-28T14:45:14.442Z,5.40
2023-01-28T14:47:44.194Z,5.50
2023-01-28T14:50:26.198Z,5.10
2023-01-28T14:53:44.394Z,5.30
2023-01-28T14:56:36.608Z,5.30
2023-01-28T14:59:16.480Z,5.20
2023-01-28T15:01:44.680Z,5.20
2023-01-28T15:04:32.460Z,5.20
2023-01-28T15:07:15.801Z,5.20
2023-01-28T15:09:43.176Z,5.20
2023-01-28T15:12:10.508Z,5.30
2023-01-28T15:14:37.388Z,5.50
2023-01-28T15:17:04.868Z,5.50
2023-01-28T15:19:36.911Z,5.10
2023-01-28T15:22:06.556Z,5.20
2023-01-28T15:24:37.036Z,5.10
2023-01-28T15:27:04.142Z,5.10
2023-01-28T15:29:37.220Z,5.10
2023-01-28T15:32:05.328Z,5.00
2023-01-28T15:34:32.518Z,5.00
2023-01-28T15:37:01.192Z,4.90
2023-01-28T15:39:29.853Z,5.20
2023-01-28T15:42:06.574Z,5.20
2023-01-28T15:44:45.573Z,4.90
2023-01-28T15:47:23.480Z,4.90
2023-01-28T15:49:55.849Z,4.80
2023-01-28T15:52:32.900Z,4.90
2023-01-28T15:55:00.108Z,4.80
2023-01-28T15:57:33.541Z,5.00
2023-01-28T16:00:06.462Z,4.80
2023-01-28T16:02:46.955Z,4.80
2023-01-28T16:05:35.378Z,4.70
2023-01-28T16:08:11.996Z,4.80
2023-01-28T16:10:39.049Z,4.80
2023-01-28T16:13:24.366Z,5.10
2023-01-28T16:15:54.013Z,4.70
2023-01-28T16:18:43.415Z,4.70
2023-01-28T16:21:12.772Z,4.70
2023-01-28T16:23:40.370Z,4.90
2023-01-28T16:26:26.253Z,4.70
2023-01-28T16:28:53.311Z,4.80
2023-01-28T16:31:20.574Z,4.70
2023-01-28T16:33:47.692Z,4.90
2023-01-28T16:36:19.458Z,4.80
2023-01-28T16:38:46.464Z,4.90
2023-01-28T16:41:26.030Z,4.70
2023-01-28T16:43:53.351Z,4.70
2023-01-28T16:46:20.221Z,4.70
2023-01-28T16:48:47.134Z,4.90
2023-01-28T16:51:18.697Z,4.70
2023-01-28T16:53:50.182Z,5.00
2023-01-28T16:56:30.520Z,4.60
2023-01-28T16:59:10.546Z,4.70
2023-01-28T17:01:37.331Z,4.70
2023-01-28T17:04:12.054Z,4.60
2023-01-28T17:06:43.032Z,4.60
2023-01-28T17:09:11.846Z,4.60
2023-01-28T17:11:42.071Z,4.60
2023-01-28T17:14:10.721Z,4.60
2023-01-28T17:16:38.170Z,4.80
2023-01-28T17:19:05.268Z,4.60
2023-01-28T17:21:32.366Z,4.60
2023-01-28T17:24:00.893Z,4.60
2023-01-28T17:26:29.166Z,4.60
2023-01-28T17:28:56.702Z,4.60
2023-01-28T17:31:26.408Z,4.60
2023-01-28T17:33:55.562Z,4.60
2023-01-28T17:36:23.717Z,4.60
2023-01-28T17:38:51.372Z,4.60
2023-01-28T17:41:18.711Z,4.60
2023-01-28T17:43:53.626Z,4.60
2023-01-28T17:46:26.145Z,4.70
2023-01-28T17:48:53.662Z,4.70
2023-01-28T17:51:20.621Z,4.70
2023-01-28T17:53:53.918Z,5.10
2023-01-28T17:56:28.311Z,4.60
2023-01-28T17:58:58.119Z,4.70
2023-01-28T18:01:25.678Z,4.70
2023-01-28T18:03:55.846Z,4.70
2023-01-28T18:06:22.973Z,4.90
2023-01-28T18:08:49.893Z,4.60
2023-01-28T18:11:19.498Z,4.60
2023-01-28T18:13:46.531Z,4.60
2023-01-28T18:16:16.287Z,4.60
2023-01-28T18:18:43.505Z,4.60
2023-01-28T18:21:50.509Z,4.30
2023-01-28T18:24:19.208Z,4.60
2023-01-28T18:26:50.486Z,4.60
2023-01-28T18:29:20.531Z,4.90
2023-01-28T18:31:48.666Z,4.60
2023-01-28T18:34:16.337Z,4.60
2023-01-28T18:36:43.570Z,5.00
2023-01-28T18:39:15.425Z,4.60
2023-01-28T18:41:42.595Z,4.60
2023-01-28T18:44:14.747Z,4.60
2023-01-28T18:46:42.403Z,4.60
2023-01-28T18:49:09.404Z,4.90
2023-01-28T18:51:36.677Z,5.00
2023-01-28T18:54:06.517Z,4.60
2023-01-28T18:56:34.481Z,4.60
2023-01-28T18:59:06.960Z,4.70
2023-01-28T19:01:35.149Z,4.60
2023-01-28T19:04:02.735Z,4.60
2023-01-28T19:06:31.230Z,5.00
2023-01-28T19:09:05.917Z,4.60
2023-01-28T19:11:41.566Z,4.70
2023-01-28T19:14:22.147Z,4.70
2023-01-28T19:16:49.151Z,4.90
2023-01-28T19:19:16.089Z,4.70
2023-01-28T19:21:42.993Z,4.60
2023-01-28T19:24:13.985Z,4.60
2023-01-28T19:26:43.851Z,5.00
2023-01-28T19:29:15.214Z,4.60
2023-01-28T19:31:43.824Z,5.00
2023-01-28T19:34:10.875Z,4.60
2023-01-28T19:36:38.084Z,4.60
2023-01-28T19:39:08.371Z,4.60
2023-01-28T19:41:36.608Z,4.60
2023-01-28T19:44:04.971Z,4.60
2023-01-28T19:46:33.101Z,4.60
2023-01-28T19:48:59.941Z,4.70
2023-01-28T19:51:26.860Z,4.70
2023-01-28T19:53:54.849Z,4.90
2023-01-28T19:56:23.592Z,4.70
2023-01-28T19:58:50.768Z,4.60
2023-01-28T20:01:20.196Z,4.90
2023-01-28T20:03:55.259Z,4.60
2023-01-28T20:06:23.926Z,4.60
2023-01-28T20:08:58.498Z,4.60
2023-01-28T20:11:26.079Z,4.60
2023-01-28T20:13:54.562Z,4.60
2023-01-28T20:16:30.502Z,4.70
2023-01-28T20:19:03.881Z,4.50
2023-01-28T20:21:32.198Z,4.60
2023-01-28T20:24:01.078Z,4.50
2023-01-28T20:26:33.872Z,4.50
2023-01-28T20:29:04.054Z,4.50
2023-01-28T20:31:32.723Z,4.50
2023-01-28T20:34:01.022Z,4.50
2023-01-28T20:36:27.974Z,4.50
2023-01-28T20:38:54.814Z,4.50
2023-01-28T20:41:24.423Z,4.80
2023-01-28T20:43:51.974Z,4.80
2023-01-28T20:46:24.567Z,4.40
2023-01-28T20:48:54.084Z,4.40
2023-01-28T20:51:23.797Z,4.40
2023-01-28T20:53:50.815Z,4.40
2023-01-28T20:56:20.522Z,4.40
2023-01-28T20:58:49.391Z,4.30
2023-01-28T21:01:21.397Z,4.40
2023-01-28T21:03:48.891Z,4.60
2023-01-28T21:06:16.600Z,4.30
2023-01-28T21:08:44.188Z,4.40
2023-01-28T21:11:12.068Z,4.70
2023-01-28T21:13:39.034Z,4.40
2023-01-28T21:16:06.675Z,4.70
2023-01-28T21:18:33.669Z,4.40
2023-01-28T21:21:10.545Z,4.70
2023-01-28T21:23:37.524Z,4.40
2023-01-28T21:26:05.378Z,4.40
2023-01-28T21:28:32.699Z,4.40
2023-01-28T21:31:17.720Z,4.40
2023-01-28T21:33:49.084Z,4.40
2023-01-28T21:36:17.382Z,4.40
2023-01-28T21:38:44.977Z,4.30
2023-01-28T21:41:12.215Z,4.70
2023-01-28T21:43:39.178Z,4.40
2023-01-28T21:46:06.147Z,4.40
2023-01-28T21:48:33.071Z,4.30
2023-01-28T21:51:25.923Z,4.80
2023-01-28T21:53:53.205Z,4.50
2023-01-28T21:56:20.570Z,4.40
2023-01-28T21:59:06.114Z,4.40
2023-01-28T22:01:33.098Z,4.30
2023-01-28T22:04:00.391Z,4.50
2023-01-28T22:06:27.675Z,4.40
2023-01-28T22:08:55.004Z,4.30
2023-01-28T22:11:22.345Z,4.70
2023-01-28T22:13:49.281Z,4.40
2023-01-28T22:16:17.319Z,4.70
2023-01-28T22:18:44.174Z,4.40
2023-01-28T22:21:13.067Z,4.60
2023-01-28T22:23:39.897Z,4.30
2023-01-28T22:26:07.048Z,4.30
2023-01-28T22:28:34.145Z,4.40
2023-01-28T22:31:12.739Z,4.30
2023-01-28T22:33:40.634Z,4.40
2023-01-28T22:36:11.492Z,4.40
2023-01-28T22:38:41.580Z,4.30
2023-01-28T22:41:10.955Z,4.30
2023-01-28T22:43:38.136Z,4.30
2023-01-28T22:46:05.766Z,4.30
2023-01-28T22:48:35.645Z,4.30
2023-01-28T22:51:11.116Z,4.30
2023-01-28T22:53:37.975Z,4.30
2023-01-28T22:56:05.216Z,4.70
2023-01-28T22:58:32.172Z,4.30
2023-01-28T23:00:59.401Z,4.60
2023-01-28T23:03:26.868Z,4.40
2023-01-28T23:06:01.265Z,4.40
2023-01-28T23:08:28.956Z,4.30
2023-01-28T23:10:57.497Z,4.30
2023-01-28T23:13:26.339Z,4.40
2023-01-28T23:16:12.062Z,4.60
2023-01-28T23:18:38.971Z,4.20
2023-01-28T23:21:45.128Z,4.30
2023-01-28T23:24:20.753Z,4.60
2023-01-28T23:26:54.635Z,4.30
2023-01-28T23:29:26.757Z,4.20
2023-01-28T23:32:03.735Z,4.20
2023-01-28T23:34:34.652Z,4.30
2023-01-28T23:37:02.604Z,4.60
2023-01-28T23:39:29.486Z,4.30
2023-01-28T23:41:56.662Z,4.40
2023-01-28T23:44:28.254Z,4.70
2023-01-28T23:46:56.401Z,4.30
2023-01-28T23:49:23.353Z,4.30
2023-01-28T23:51:50.320Z,4.40
2023-01-28T23:54:17.579Z,4.30
2023-01-28T23:56:44.604Z,4.30
2023-01-28T23:59:11.501Z,4.30
